MMZC 090551Z 00000KT 10SM SKC 08/M04 A3030= 090552

MMZC 090453Z 18010KT 10SM SKC 09/M04 A3029= 090453

MMZC 090343Z 00000KT 10SM FEW200 11/M05 A3029 RMK 8/001= 090344

MMZC 090246Z 18003KT 10SM FEW200 12/M06 A3028 RMK 8/001= 090247

MMZC 090154Z 18006KT 10SM FEW300 13/M06 A3025 RMK 8/001= 090157

MMZC 090049Z 18006KT 10SM FEW200 16/M07 A3022 RMK 8/001= 090049

MMZC 082350Z 20012KT 10SM SCT200 20/M09 A3022 RMK 8/001= 082350

MMZC 082250Z 23012KT 10SM SCT200 23/M08 A3021 RMK 8/001= 082250

MMZC 082140Z 20017KT 10SM SCT200 23/M03 A3022 RMK 8/001= 082141

MMZC 082043Z 20010KT 10SM SCT200 23/M02 A3022 RMK 8/001= 082044

MMZC 081940Z 20015KT 10SM SCT200 22/M01 A3024 RMK 8/001= 081941

MMZC 081840Z 24010KT 10SM SCT200 21/01 A3028 RMK 8/001= 081841

MMZC 081743Z 20010KT 10SM SCT200 20/M02 A3030 RMK 8/001= 081744

MMZC 081640Z 18010KT 10SM SCT200 18/03 A3032 RMK 8/001= 081641

MMZC 081540Z 18005KT 10SM SCT200 15/03 A3033 RMK 8/001= 081541

MMZC 081440Z 18005KT 10SM SCT200 09/02 A3032 RMK 8/001= 081440

MMZC 081351Z 20005KT 10SM SCT200 04/M01 A3030 RMK 8/001= 081351

MMZC 081240Z 00000KT 10SM FEW200 06/00 A3030 RMK 8/001= 081250

MMZC 081140Z 18005KT 10SM SKC 06/00 A3027= 081142

MMZC 081040Z 18010KT 10SM SKC 08/00 A3030= 081041

MMZC 080940Z 18005KT 10SM SKC 09/00 A3030= 080942

MMZC 080740Z 18005KT 10SM SKC 05/M01 A3029= 080742

MMZC 080640Z 18005KT 10SM SKC 09/M02 A3029= 080641

MMZC 080541Z 18005KT 10SM SKC 09/M02 A3029= 080543

MMZC 080447Z 18005KT 10SM SKC 09/M02 A3029= 080449

MMZC 080340Z 18010KT 10SM FEW200 10/M02 A3029 RMK 8/001= 080349

MMZC 080240Z 20002KT 10SM SCT200 13/M03 A3027 RMK 8/001= 080243

MMZC 080146Z 20003KT 10SM SCT200 14/M02 A3026 RMK 8/001= 080147

MMZC 080049Z 20003KT 10SM BKN200 16/M02 A3023 RMK 8/001= 080051

MMZC 072343Z 23016KT 10SM BKN200 21/M03 A3020 RMK 8/001= 072345

MMZC 072240Z 20017KT 10SM BKN200 22/M05 A3019 RMK 8/001= 072241

MMZC 072143Z 22013G23KT 10SM FEW150 22/M03 A3017 RMK 8/010= 072144

MMZC 072040Z 21015G25KT 10SM FEW150 22/M03 A3018 RMK 8/010= 072040

MMZC 071940Z 21013KT 10SM FEW200 21/M05 A3021 RMK 8/001= 071940

MMZC 071840Z 21010KT 10SM FEW200 21/M02 A3025 RMK 8/001= 071841

MMZC 071741Z 20015KT 10SM FEW200 19/03 A3028 RMK 8/001= 071741

MMZC 071641Z 18015KT 10SM FEW200 17/05 A3030 RMK 8/001= 071642

MMZC 071543Z 18010KT 10SM BKN200 15/06 A3030 RMK 8/001= 071544

MMZC 071522Z RTD 18015KT 10SM BKN200 14/06 A3030 RMK 8/001= 071522

MMZC 071340Z 18005KT 10SM BKN200 07/03 A3029 RMK 8/001= 071341

COR MMZC 071248Z 00000KT 5SM SKC 07/03 A3027 RMK HZY= 071257

MMZC 071248Z 00000KT 10SM SKC 06/02 A3027= 071249

MMZC 071141Z 00000KT 10SM SKC 06/02 A3025 RMK HZ= 071141

MMZC 071102Z RTD 00000KT 10SM SKC 05/02 A3025= 071103

MMZC 070947Z 00000KT 10SM SKC 06/01 A3030= 070948

MMZC 070847Z 00000KT 10SM SKC 05/03 A3030= 070849

MMZC 070747Z 00000KT 10SM SKC 05/02 A3030= 070748

MMZC 070647Z 00000KT 10SM SKC 09/03 A3030= 070648

MMZC 070548Z 00000KT 10SM SKC 10/02 A3030= 070549

MMZC 070443Z 00000KT 10SM BKN200 10/01 A3030 RMK 8/001= 070444